sensor_id;sensor_type;location;lat;lon;timestamp;P1;durP1;ratioP1;P2;durP2;ratioP2
12171;SDS011;6149;52.418;13.668;2022-09-24T00:02:22;7.57;;;6.80;;
12171;SDS011;6149;52.418;13.668;2022-09-24T00:04:50;8.17;;;6.90;;
12171;SDS011;6149;52.418;13.668;2022-09-24T00:07:18;7.13;;;6.43;;
12171;SDS011;6149;52.418;13.668;2022-09-24T00:09:46;6.87;;;6.10;;
12171;SDS011;6149;52.418;13.668;2022-09-24T00:12:15;9.47;;;6.47;;
12171;SDS011;6149;52.418;13.668;2022-09-24T00:14:44;7.50;;;6.80;;
12171;SDS011;6149;52.418;13.668;2022-09-24T00:17:11;9.07;;;7.20;;
12171;SDS011;6149;52.418;13.668;2022-09-24T00:19:39;6.67;;;5.90;;
12171;SDS011;6149;52.418;13.668;2022-09-24T00:22:07;7.50;;;6.70;;
12171;SDS011;6149;52.418;13.668;2022-09-24T00:24:35;7.33;;;6.00;;
12171;SDS011;6149;52.418;13.668;2022-09-24T00:27:23;7.10;;;6.40;;
12171;SDS011;6149;52.418;13.668;2022-09-24T00:29:51;8.17;;;6.37;;
12171;SDS011;6149;52.418;13.668;2022-09-24T00:32:19;6.50;;;5.80;;
12171;SDS011;6149;52.418;13.668;2022-09-24T00:34:49;7.83;;;6.57;;
12171;SDS011;6149;52.418;13.668;2022-09-24T00:37:19;6.60;;;5.90;;
12171;SDS011;6149;52.418;13.668;2022-09-24T00:39:47;6.53;;;5.90;;
12171;SDS011;6149;52.418;13.668;2022-09-24T00:42:13;7.37;;;6.57;;
12171;SDS011;6149;52.418;13.668;2022-09-24T00:44:54;7.50;;;6.70;;
12171;SDS011;6149;52.418;13.668;2022-09-24T00:47:23;6.73;;;6.13;;
12171;SDS011;6149;52.418;13.668;2022-09-24T00:49:57;8.63;;;7.10;;
12171;SDS011;6149;52.418;13.668;2022-09-24T00:52:32;7.23;;;6.33;;
12171;SDS011;6149;52.418;13.668;2022-09-24T00:55:02;8.77;;;7.17;;
12171;SDS011;6149;52.418;13.668;2022-09-24T00:57:30;7.43;;;6.63;;
12171;SDS011;6149;52.418;13.668;2022-09-24T00:59:58;7.03;;;6.40;;
12171;SDS011;6149;52.418;13.668;2022-09-24T01:02:26;7.77;;;6.93;;
12171;SDS011;6149;52.418;13.668;2022-09-24T01:04:53;7.50;;;6.80;;
12171;SDS011;6149;52.418;13.668;2022-09-24T01:07:21;7.37;;;6.50;;
12171;SDS011;6149;52.418;13.668;2022-09-24T01:09:47;7.70;;;7.00;;
12171;SDS011;6149;52.418;13.668;2022-09-24T01:12:16;8.83;;;7.20;;
12171;SDS011;6149;52.418;13.668;2022-09-24T01:17:45;7.87;;;5.90;;
12171;SDS011;6149;52.418;13.668;2022-09-24T01:20:35;7.07;;;6.17;;
12171;SDS011;6149;52.418;13.668;2022-09-24T01:26:19;6.73;;;6.13;;
12171;SDS011;6149;52.418;13.668;2022-09-24T01:29:23;6.97;;;6.37;;
12171;SDS011;6149;52.418;13.668;2022-09-24T01:31:58;8.00;;;6.30;;
12171;SDS011;6149;52.418;13.668;2022-09-24T01:34:32;6.83;;;6.23;;
12171;SDS011;6149;52.418;13.668;2022-09-24T01:37:04;7.30;;;6.10;;
12171;SDS011;6149;52.418;13.668;2022-09-24T01:39:31;7.07;;;6.37;;
12171;SDS011;6149;52.418;13.668;2022-09-24T01:42:02;7.50;;;6.80;;
12171;SDS011;6149;52.418;13.668;2022-09-24T01:44:32;7.03;;;6.30;;
12171;SDS011;6149;52.418;13.668;2022-09-24T01:47:01;7.27;;;6.57;;
12171;SDS011;6149;52.418;13.668;2022-09-24T01:49:32;7.43;;;6.53;;
12171;SDS011;6149;52.418;13.668;2022-09-24T01:51:59;7.07;;;6.30;;
12171;SDS011;6149;52.418;13.668;2022-09-24T01:54:36;7.00;;;6.40;;
12171;SDS011;6149;52.418;13.668;2022-09-24T01:57:10;7.07;;;6.37;;
12171;SDS011;6149;52.418;13.668;2022-09-24T01:59:45;6.57;;;5.50;;
12171;SDS011;6149;52.418;13.668;2022-09-24T02:02:21;7.73;;;6.20;;
12171;SDS011;6149;52.418;13.668;2022-09-24T02:04:56;6.07;;;5.47;;
12171;SDS011;6149;52.418;13.668;2022-09-24T02:07:29;6.90;;;6.20;;
12171;SDS011;6149;52.418;13.668;2022-09-24T02:10:02;7.20;;;5.83;;
12171;SDS011;6149;52.418;13.668;2022-09-24T02:12:31;6.93;;;5.77;;
12171;SDS011;6149;52.418;13.668;2022-09-24T02:15:09;6.23;;;5.67;;
12171;SDS011;6149;52.418;13.668;2022-09-24T02:17:40;7.30;;;6.53;;
12171;SDS011;6149;52.418;13.668;2022-09-24T02:20:16;6.53;;;5.93;;
12171;SDS011;6149;52.418;13.668;2022-09-24T02:22:48;7.70;;;6.40;;
12171;SDS011;6149;52.418;13.668;2022-09-24T02:25:19;6.80;;;6.10;;
12171;SDS011;6149;52.418;13.668;2022-09-24T02:27:51;5.90;;;5.40;;
12171;SDS011;6149;52.418;13.668;2022-09-24T02:30:21;6.90;;;6.27;;
12171;SDS011;6149;52.418;13.668;2022-09-24T02:32:49;7.27;;;6.57;;
12171;SDS011;6149;52.418;13.668;2022-09-24T02:35:19;6.37;;;5.77;;
12171;SDS011;6149;52.418;13.668;2022-09-24T02:37:47;8.70;;;6.63;;
12171;SDS011;6149;52.418;13.668;2022-09-24T02:40:15;6.83;;;6.13;;
12171;SDS011;6149;52.418;13.668;2022-09-24T02:42:43;7.43;;;6.17;;
12171;SDS011;6149;52.418;13.668;2022-09-24T02:45:10;7.47;;;6.63;;
12171;SDS011;6149;52.418;13.668;2022-09-24T02:47:40;7.20;;;6.50;;
12171;SDS011;6149;52.418;13.668;2022-09-24T02:50:08;7.67;;;6.93;;
12171;SDS011;6149;52.418;13.668;2022-09-24T02:52:36;7.33;;;6.63;;
12171;SDS011;6149;52.418;13.668;2022-09-24T02:55:04;6.73;;;5.93;;
12171;SDS011;6149;52.418;13.668;2022-09-24T02:57:32;6.10;;;5.50;;
12171;SDS011;6149;52.418;13.668;2022-09-24T03:00:00;6.50;;;6.00;;
12171;SDS011;6149;52.418;13.668;2022-09-24T03:02:28;6.30;;;5.70;;
12171;SDS011;6149;52.418;13.668;2022-09-24T03:04:58;5.63;;;5.13;;
12171;SDS011;6149;52.418;13.668;2022-09-24T03:07:25;6.73;;;6.13;;
12171;SDS011;6149;52.418;13.668;2022-09-24T03:09:53;8.23;;;6.50;;
12171;SDS011;6149;52.418;13.668;2022-09-24T03:12:21;8.50;;;6.67;;
12171;SDS011;6149;52.418;13.668;2022-09-24T03:14:49;7.40;;;6.70;;
12171;SDS011;6149;52.418;13.668;2022-09-24T03:17:17;7.23;;;6.53;;
12171;SDS011;6149;52.418;13.668;2022-09-24T03:19:45;6.80;;;6.20;;
12171;SDS011;6149;52.418;13.668;2022-09-24T03:22:14;7.27;;;6.23;;
12171;SDS011;6149;52.418;13.668;2022-09-24T03:24:42;6.43;;;5.90;;
12171;SDS011;6149;52.418;13.668;2022-09-24T03:27:10;6.20;;;5.70;;
12171;SDS011;6149;52.418;13.668;2022-09-24T03:29:38;6.03;;;5.50;;
12171;SDS011;6149;52.418;13.668;2022-09-24T03:32:23;5.90;;;5.30;;
12171;SDS011;6149;52.418;13.668;2022-09-24T03:34:51;7.33;;;6.67;;
12171;SDS011;6149;52.418;13.668;2022-09-24T03:37:20;6.77;;;6.07;;
12171;SDS011;6149;52.418;13.668;2022-09-24T03:39:48;7.30;;;6.47;;
12171;SDS011;6149;52.418;13.668;2022-09-24T03:42:15;7.23;;;5.93;;
12171;SDS011;6149;52.418;13.668;2022-09-24T03:44:42;6.73;;;6.07;;
12171;SDS011;6149;52.418;13.668;2022-09-24T03:47:10;7.67;;;6.93;;
12171;SDS011;6149;52.418;13.668;2022-09-24T03:49:38;7.97;;;7.27;;
12171;SDS011;6149;52.418;13.668;2022-09-24T03:52:05;7.13;;;6.53;;
12171;SDS011;6149;52.418;13.668;2022-09-24T03:54:35;7.67;;;6.97;;
12171;SDS011;6149;52.418;13.668;2022-09-24T03:57:02;7.60;;;6.90;;
12171;SDS011;6149;52.418;13.668;2022-09-24T03:59:29;7.47;;;6.77;;
12171;SDS011;6149;52.418;13.668;2022-09-24T04:01:55;7.97;;;7.17;;
12171;SDS011;6149;52.418;13.668;2022-09-24T04:04:23;7.97;;;7.17;;
12171;SDS011;6149;52.418;13.668;2022-09-24T04:06:51;7.87;;;6.70;;
12171;SDS011;6149;52.418;13.668;2022-09-24T04:09:18;7.60;;;6.90;;
12171;SDS011;6149;52.418;13.668;2022-09-24T04:11:47;7.13;;;6.53;;
12171;SDS011;6149;52.418;13.668;2022-09-24T04:14:17;8.10;;;7.30;;
12171;SDS011;6149;52.418;13.668;2022-09-24T04:16:45;7.90;;;7.20;;
12171;SDS011;6149;52.418;13.668;2022-09-24T04:19:13;7.73;;;7.00;;
12171;SDS011;6149;52.418;13.668;2022-09-24T04:21:42;8.10;;;7.27;;
12171;SDS011;6149;52.418;13.668;2022-09-24T04:24:10;7.87;;;7.07;;
12171;SDS011;6149;52.418;13.668;2022-09-24T04:26:38;7.33;;;6.23;;
12171;SDS011;6149;52.418;13.668;2022-09-24T04:29:07;7.43;;;6.73;;
12171;SDS011;6149;52.418;13.668;2022-09-24T04:31:35;8.40;;;7.53;;
12171;SDS011;6149;52.418;13.668;2022-09-24T04:34:03;7.77;;;6.87;;
12171;SDS011;6149;52.418;13.668;2022-09-24T04:36:31;7.37;;;6.67;;
12171;SDS011;6149;52.418;13.668;2022-09-24T04:38:59;7.80;;;7.03;;
12171;SDS011;6149;52.418;13.668;2022-09-24T04:41:28;7.33;;;6.63;;
12171;SDS011;6149;52.418;13.668;2022-09-24T04:43:55;6.67;;;6.07;;
12171;SDS011;6149;52.418;13.668;2022-09-24T04:46:24;7.53;;;6.83;;
12171;SDS011;6149;52.418;13.668;2022-09-24T04:48:51;8.33;;;7.50;;
12171;SDS011;6149;52.418;13.668;2022-09-24T04:51:19;7.63;;;6.93;;
12171;SDS011;6149;52.418;13.668;2022-09-24T04:53:46;6.93;;;6.33;;
12171;SDS011;6149;52.418;13.668;2022-09-24T04:56:16;7.27;;;6.57;;
12171;SDS011;6149;52.418;13.668;2022-09-24T04:58:43;7.60;;;6.87;;
12171;SDS011;6149;52.418;13.668;2022-09-24T05:01:11;7.97;;;6.70;;
12171;SDS011;6149;52.418;13.668;2022-09-24T05:03:39;7.00;;;6.30;;
12171;SDS011;6149;52.418;13.668;2022-09-24T05:06:07;7.13;;;6.50;;
12171;SDS011;6149;52.418;13.668;2022-09-24T05:08:33;7.47;;;6.73;;
12171;SDS011;6149;52.418;13.668;2022-09-24T05:11:01;7.43;;;6.67;;
12171;SDS011;6149;52.418;13.668;2022-09-24T05:13:27;8.13;;;7.37;;
12171;SDS011;6149;52.418;13.668;2022-09-24T05:15:55;6.77;;;6.07;;
12171;SDS011;6149;52.418;13.668;2022-09-24T05:18:21;6.87;;;6.27;;
12171;SDS011;6149;52.418;13.668;2022-09-24T05:20:51;8.17;;;6.80;;
12171;SDS011;6149;52.418;13.668;2022-09-24T05:23:17;8.03;;;7.23;;
12171;SDS011;6149;52.418;13.668;2022-09-24T05:25:45;9.33;;;7.90;;
12171;SDS011;6149;52.418;13.668;2022-09-24T05:28:34;7.60;;;6.80;;
12171;SDS011;6149;52.418;13.668;2022-09-24T05:31:03;7.73;;;7.10;;
12171;SDS011;6149;52.418;13.668;2022-09-24T05:33:31;7.23;;;6.53;;
12171;SDS011;6149;52.418;13.668;2022-09-24T05:35:59;8.00;;;7.23;;
12171;SDS011;6149;52.418;13.668;2022-09-24T05:38:27;9.17;;;8.33;;
12171;SDS011;6149;52.418;13.668;2022-09-24T05:40:54;7.60;;;6.90;;
12171;SDS011;6149;52.418;13.668;2022-09-24T05:43:22;8.43;;;7.00;;
12171;SDS011;6149;52.418;13.668;2022-09-24T05:45:52;8.60;;;7.70;;
12171;SDS011;6149;52.418;13.668;2022-09-24T05:48:23;8.37;;;7.57;;
12171;SDS011;6149;52.418;13.668;2022-09-24T05:50:50;9.80;;;8.80;;
12171;SDS011;6149;52.418;13.668;2022-09-24T05:53:22;8.63;;;7.70;;
12171;SDS011;6149;52.418;13.668;2022-09-24T05:55:51;10.00;;;8.40;;
12171;SDS011;6149;52.418;13.668;2022-09-24T05:58:19;9.57;;;8.67;;
12171;SDS011;6149;52.418;13.668;2022-09-24T06:00:47;9.23;;;8.43;;
12171;SDS011;6149;52.418;13.668;2022-09-24T06:03:18;9.30;;;8.40;;
12171;SDS011;6149;52.418;13.668;2022-09-24T06:05:46;10.03;;;9.03;;
12171;SDS011;6149;52.418;13.668;2022-09-24T06:08:17;8.70;;;7.80;;
12171;SDS011;6149;52.418;13.668;2022-09-24T06:10:47;8.70;;;7.90;;
12171;SDS011;6149;52.418;13.668;2022-09-24T06:13:16;8.93;;;8.03;;
12171;SDS011;6149;52.418;13.668;2022-09-24T06:15:46;8.30;;;7.53;;
12171;SDS011;6149;52.418;13.668;2022-09-24T06:18:14;8.37;;;7.67;;
12171;SDS011;6149;52.418;13.668;2022-09-24T06:20:41;9.80;;;7.97;;
12171;SDS011;6149;52.418;13.668;2022-09-24T06:23:09;11.17;;;8.37;;
12171;SDS011;6149;52.418;13.668;2022-09-24T06:25:38;9.57;;;8.17;;
12171;SDS011;6149;52.418;13.668;2022-09-24T06:28:26;8.07;;;7.23;;
12171;SDS011;6149;52.418;13.668;2022-09-24T06:30:57;7.53;;;6.80;;
12171;SDS011;6149;52.418;13.668;2022-09-24T06:33:26;7.43;;;6.73;;
12171;SDS011;6149;52.418;13.668;2022-09-24T06:35:54;7.13;;;6.53;;
12171;SDS011;6149;52.418;13.668;2022-09-24T06:38:26;6.90;;;6.20;;
12171;SDS011;6149;52.418;13.668;2022-09-24T06:40:57;8.13;;;7.30;;
12171;SDS011;6149;52.418;13.668;2022-09-24T06:43:27;8.27;;;7.40;;
12171;SDS011;6149;52.418;13.668;2022-09-24T06:45:59;8.87;;;7.90;;
12171;SDS011;6149;52.418;13.668;2022-09-24T06:48:28;7.63;;;6.80;;
12171;SDS011;6149;52.418;13.668;2022-09-24T06:50:56;9.17;;;7.30;;
12171;SDS011;6149;52.418;13.668;2022-09-24T06:53:23;7.43;;;6.73;;
12171;SDS011;6149;52.418;13.668;2022-09-24T06:55:55;8.37;;;7.17;;
12171;SDS011;6149;52.418;13.668;2022-09-24T06:58:24;7.97;;;7.27;;
12171;SDS011;6149;52.418;13.668;2022-09-24T07:00:53;7.93;;;7.13;;
12171;SDS011;6149;52.418;13.668;2022-09-24T07:03:24;8.67;;;6.90;;
12171;SDS011;6149;52.418;13.668;2022-09-24T07:05:54;9.13;;;7.33;;
12171;SDS011;6149;52.418;13.668;2022-09-24T07:08:22;8.17;;;7.00;;
12171;SDS011;6149;52.418;13.668;2022-09-24T07:10:49;8.63;;;7.00;;
12171;SDS011;6149;52.418;13.668;2022-09-24T07:13:18;7.63;;;6.90;;
12171;SDS011;6149;52.418;13.668;2022-09-24T07:15:47;7.57;;;6.87;;
12171;SDS011;6149;52.418;13.668;2022-09-24T07:18:19;7.53;;;6.87;;
12171;SDS011;6149;52.418;13.668;2022-09-24T07:20:50;7.07;;;6.37;;
12171;SDS011;6149;52.418;13.668;2022-09-24T07:23:18;7.87;;;7.03;;
12171;SDS011;6149;52.418;13.668;2022-09-24T07:25:46;8.30;;;7.50;;
12171;SDS011;6149;52.418;13.668;2022-09-24T07:28:15;8.37;;;6.97;;
12171;SDS011;6149;52.418;13.668;2022-09-24T07:30:44;8.03;;;7.13;;
12171;SDS011;6149;52.418;13.668;2022-09-24T07:33:11;9.07;;;7.47;;
12171;SDS011;6149;52.418;13.668;2022-09-24T07:35:40;8.80;;;7.90;;
12171;SDS011;6149;52.418;13.668;2022-09-24T07:38:09;7.90;;;7.07;;
12171;SDS011;6149;52.418;13.668;2022-09-24T07:40:38;7.97;;;7.13;;
12171;SDS011;6149;52.418;13.668;2022-09-24T07:43:06;8.67;;;7.07;;
12171;SDS011;6149;52.418;13.668;2022-09-24T07:45:39;7.97;;;6.87;;
12171;SDS011;6149;52.418;13.668;2022-09-24T07:49:54;7.10;;;6.40;;
12171;SDS011;6149;52.418;13.668;2022-09-24T07:52:20;8.30;;;7.03;;
12171;SDS011;6149;52.418;13.668;2022-09-24T07:54:50;8.13;;;7.00;;
12171;SDS011;6149;52.418;13.668;2022-09-24T07:57:19;8.37;;;6.60;;
12171;SDS011;6149;52.418;13.668;2022-09-24T07:59:47;7.60;;;6.90;;
12171;SDS011;6149;52.418;13.668;2022-09-24T08:02:17;8.10;;;6.97;;
12171;SDS011;6149;52.418;13.668;2022-09-24T08:04:44;7.63;;;6.77;;
12171;SDS011;6149;52.418;13.668;2022-09-24T08:07:14;7.53;;;6.77;;
12171;SDS011;6149;52.418;13.668;2022-09-24T08:09:42;7.27;;;5.67;;
12171;SDS011;6149;52.418;13.668;2022-09-24T08:12:10;8.13;;;6.17;;
12171;SDS011;6149;52.418;13.668;2022-09-24T08:14:38;6.93;;;6.23;;
12171;SDS011;6149;52.418;13.668;2022-09-24T08:17:07;6.67;;;6.07;;
12171;SDS011;6149;52.418;13.668;2022-09-24T08:19:34;7.07;;;6.37;;
12171;SDS011;6149;52.418;13.668;2022-09-24T08:22:02;8.63;;;6.27;;
12171;SDS011;6149;52.418;13.668;2022-09-24T08:24:31;7.37;;;6.60;;
12171;SDS011;6149;52.418;13.668;2022-09-24T08:27:00;10.27;;;6.60;;
12171;SDS011;6149;52.418;13.668;2022-09-24T08:29:27;7.87;;;5.97;;
12171;SDS011;6149;52.418;13.668;2022-09-24T08:31:55;6.93;;;6.20;;
12171;SDS011;6149;52.418;13.668;2022-09-24T08:34:23;10.00;;;6.80;;
12171;SDS011;6149;52.418;13.668;2022-09-24T08:36:50;6.90;;;6.10;;
12171;SDS011;6149;52.418;13.668;2022-09-24T08:39:19;8.50;;;6.50;;
12171;SDS011;6149;52.418;13.668;2022-09-24T08:41:50;8.07;;;6.20;;
12171;SDS011;6149;52.418;13.668;2022-09-24T08:44:23;6.73;;;6.03;;
12171;SDS011;6149;52.418;13.668;2022-09-24T08:47:15;7.03;;;6.10;;
12171;SDS011;6149;52.418;13.668;2022-09-24T08:50:01;7.03;;;6.30;;
12171;SDS011;6149;52.418;13.668;2022-09-24T08:52:38;7.00;;;6.40;;
12171;SDS011;6149;52.418;13.668;2022-09-24T08:55:23;7.33;;;6.40;;
12171;SDS011;6149;52.418;13.668;2022-09-24T08:58:01;8.37;;;5.97;;
12171;SDS011;6149;52.418;13.668;2022-09-24T09:00:50;6.40;;;5.80;;
12171;SDS011;6149;52.418;13.668;2022-09-24T09:03:27;7.53;;;6.00;;
12171;SDS011;6149;52.418;13.668;2022-09-24T09:06:02;6.83;;;5.90;;
12171;SDS011;6149;52.418;13.668;2022-09-24T09:08:34;5.97;;;5.40;;
12171;SDS011;6149;52.418;13.668;2022-09-24T09:11:11;5.87;;;5.27;;
12171;SDS011;6149;52.418;13.668;2022-09-24T09:13:43;6.20;;;5.30;;
12171;SDS011;6149;52.418;13.668;2022-09-24T09:16:21;5.83;;;5.23;;
12171;SDS011;6149;52.418;13.668;2022-09-24T09:18:50;9.33;;;5.67;;
12171;SDS011;6149;52.418;13.668;2022-09-24T09:21:24;6.13;;;5.60;;
12171;SDS011;6149;52.418;13.668;2022-09-24T09:23:58;6.60;;;5.13;;
12171;SDS011;6149;52.418;13.668;2022-09-24T09:26:28;6.13;;;5.30;;
12171;SDS011;6149;52.418;13.668;2022-09-24T09:28:58;6.77;;;5.23;;
12171;SDS011;6149;52.418;13.668;2022-09-24T09:31:31;6.30;;;5.70;;
12171;SDS011;6149;52.418;13.668;2022-09-24T09:34:17;5.60;;;5.10;;
12171;SDS011;6149;52.418;13.668;2022-09-24T09:37:13;5.77;;;4.93;;
12171;SDS011;6149;52.418;13.668;2022-09-24T09:39:52;5.50;;;5.00;;
12171;SDS011;6149;52.418;13.668;2022-09-24T09:42:35;6.33;;;5.80;;
12171;SDS011;6149;52.418;13.668;2022-09-24T09:45:18;6.97;;;5.53;;
12171;SDS011;6149;52.418;13.668;2022-09-24T09:47:57;5.63;;;5.03;;
12171;SDS011;6149;52.418;13.668;2022-09-24T09:50:28;5.57;;;5.03;;
12171;SDS011;6149;52.418;13.668;2022-09-24T09:53:01;6.63;;;5.10;;
12171;SDS011;6149;52.418;13.668;2022-09-24T09:55:31;7.87;;;5.50;;
12171;SDS011;6149;52.418;13.668;2022-09-24T09:58:16;5.77;;;5.17;;
12171;SDS011;6149;52.418;13.668;2022-09-24T10:00:47;5.50;;;5.00;;
12171;SDS011;6149;52.418;13.668;2022-09-24T10:03:25;5.97;;;5.40;;
12171;SDS011;6149;52.418;13.668;2022-09-24T10:05:56;7.73;;;5.43;;
12171;SDS011;6149;52.418;13.668;2022-09-24T10:08:26;5.80;;;5.30;;
12171;SDS011;6149;52.418;13.668;2022-09-24T10:10:57;9.17;;;5.93;;
12171;SDS011;6149;52.418;13.668;2022-09-24T10:13:26;8.07;;;5.47;;
12171;SDS011;6149;52.418;13.668;2022-09-24T10:15:58;6.97;;;5.40;;
12171;SDS011;6149;52.418;13.668;2022-09-24T10:18:30;5.77;;;4.90;;
12171;SDS011;6149;52.418;13.668;2022-09-24T10:21:03;5.23;;;4.40;;
12171;SDS011;6149;52.418;13.668;2022-09-24T10:23:34;7.33;;;5.30;;
12171;SDS011;6149;52.418;13.668;2022-09-24T10:26:07;5.37;;;4.83;;
12171;SDS011;6149;52.418;13.668;2022-09-24T10:28:38;5.83;;;5.03;;
12171;SDS011;6149;52.418;13.668;2022-09-24T10:31:30;5.23;;;4.73;;
12171;SDS011;6149;52.418;13.668;2022-09-24T10:34:04;6.83;;;4.87;;
12171;SDS011;6149;52.418;13.668;2022-09-24T10:36:49;5.67;;;4.93;;
12171;SDS011;6149;52.418;13.668;2022-09-24T10:39:19;6.10;;;5.40;;
12171;SDS011;6149;52.418;13.668;2022-09-24T10:41:48;5.63;;;4.90;;
12171;SDS011;6149;52.418;13.668;2022-09-24T10:44:19;4.73;;;4.23;;
12171;SDS011;6149;52.418;13.668;2022-09-24T10:46:59;5.20;;;4.70;;
12171;SDS011;6149;52.418;13.668;2022-09-24T10:49:44;5.90;;;4.40;;
12171;SDS011;6149;52.418;13.668;2022-09-24T10:52:29;5.23;;;4.73;;
12171;SDS011;6149;52.418;13.668;2022-09-24T10:55:14;5.50;;;4.53;;
12171;SDS011;6149;52.418;13.668;2022-09-24T10:57:56;5.23;;;4.77;;
12171;SDS011;6149;52.418;13.668;2022-09-24T11:00:31;5.27;;;4.73;;
12171;SDS011;6149;52.418;13.668;2022-09-24T11:03:13;5.90;;;4.30;;
12171;SDS011;6149;52.418;13.668;2022-09-24T11:05:55;5.10;;;4.50;;
12171;SDS011;6149;52.418;13.668;2022-09-24T11:08:35;4.77;;;4.33;;
12171;SDS011;6149;52.418;13.668;2022-09-24T11:11:26;4.77;;;4.20;;
12171;SDS011;6149;52.418;13.668;2022-09-24T11:14:07;5.20;;;4.70;;
12171;SDS011;6149;52.418;13.668;2022-09-24T11:16:58;6.63;;;4.90;;
12171;SDS011;6149;52.418;13.668;2022-09-24T11:20:00;5.00;;;4.30;;
12171;SDS011;6149;52.418;13.668;2022-09-24T11:22:45;5.90;;;4.53;;
12171;SDS011;6149;52.418;13.668;2022-09-24T11:25:29;6.60;;;4.37;;
12171;SDS011;6149;52.418;13.668;2022-09-24T11:28:09;5.20;;;4.40;;
12171;SDS011;6149;52.418;13.668;2022-09-24T11:30:51;5.67;;;4.80;;
12171;SDS011;6149;52.418;13.668;2022-09-24T11:33:32;5.10;;;4.60;;
12171;SDS011;6149;52.418;13.668;2022-09-24T11:36:29;5.30;;;4.80;;
12171;SDS011;6149;52.418;13.668;2022-09-24T11:39:15;5.53;;;5.03;;
12171;SDS011;6149;52.418;13.668;2022-09-24T11:41:58;5.33;;;4.87;;
12171;SDS011;6149;52.418;13.668;2022-09-24T11:44:50;5.40;;;4.90;;
12171;SDS011;6149;52.418;13.668;2022-09-24T11:47:50;5.17;;;4.67;;
12171;SDS011;6149;52.418;13.668;2022-09-24T11:50:49;5.87;;;4.83;;
12171;SDS011;6149;52.418;13.668;2022-09-24T11:53:32;6.27;;;4.33;;
12171;SDS011;6149;52.418;13.668;2022-09-24T11:56:12;5.43;;;4.83;;
12171;SDS011;6149;52.418;13.668;2022-09-24T11:58:49;5.37;;;4.87;;
12171;SDS011;6149;52.418;13.668;2022-09-24T12:01:26;6.27;;;4.73;;
12171;SDS011;6149;52.418;13.668;2022-09-24T12:03:58;6.37;;;5.00;;
12171;SDS011;6149;52.418;13.668;2022-09-24T12:06:32;10.17;;;9.20;;
12171;SDS011;6149;52.418;13.668;2022-09-24T12:09:20;4.80;;;4.40;;
12171;SDS011;6149;52.418;13.668;2022-09-24T12:11:55;6.23;;;5.00;;
12171;SDS011;6149;52.418;13.668;2022-09-24T12:14:41;5.63;;;5.13;;
12171;SDS011;6149;52.418;13.668;2022-09-24T12:17:15;5.53;;;4.43;;
12171;SDS011;6149;52.418;13.668;2022-09-24T12:19:50;4.97;;;3.80;;
12171;SDS011;6149;52.418;13.668;2022-09-24T12:22:22;5.10;;;4.60;;
12171;SDS011;6149;52.418;13.668;2022-09-24T12:24:54;6.33;;;5.00;;
12171;SDS011;6149;52.418;13.668;2022-09-24T12:27:26;6.10;;;5.00;;
12171;SDS011;6149;52.418;13.668;2022-09-24T12:30:04;5.63;;;5.03;;
12171;SDS011;6149;52.418;13.668;2022-09-24T12:33:06;5.23;;;4.70;;
12171;SDS011;6149;52.418;13.668;2022-09-24T12:35:43;6.50;;;4.60;;
12171;SDS011;6149;52.418;13.668;2022-09-24T12:38:33;5.53;;;4.93;;
12171;SDS011;6149;52.418;13.668;2022-09-24T12:41:27;5.23;;;4.73;;
12171;SDS011;6149;52.418;13.668;2022-09-24T12:43:59;4.93;;;4.37;;
12171;SDS011;6149;52.418;13.668;2022-09-24T12:46:34;4.40;;;4.00;;
12171;SDS011;6149;52.418;13.668;2022-09-24T12:49:15;4.80;;;4.40;;
12171;SDS011;6149;52.418;13.668;2022-09-24T12:51:51;4.73;;;4.23;;
12171;SDS011;6149;52.418;13.668;2022-09-24T12:54:22;5.53;;;4.17;;
12171;SDS011;6149;52.418;13.668;2022-09-24T12:57:05;4.33;;;3.93;;
12171;SDS011;6149;52.418;13.668;2022-09-24T12:59:44;5.23;;;4.27;;
12171;SDS011;6149;52.418;13.668;2022-09-24T13:02:15;5.33;;;4.53;;
12171;SDS011;6149;52.418;13.668;2022-09-24T13:04:49;5.10;;;4.20;;
12171;SDS011;6149;52.418;13.668;2022-09-24T13:07:32;5.30;;;4.13;;
12171;SDS011;6149;52.418;13.668;2022-09-24T13:10:11;4.90;;;4.50;;
12171;SDS011;6149;52.418;13.668;2022-09-24T13:12:51;5.80;;;4.50;;
12171;SDS011;6149;52.418;13.668;2022-09-24T13:15:22;5.27;;;4.67;;
12171;SDS011;6149;52.418;13.668;2022-09-24T13:18:00;4.87;;;4.47;;
12171;SDS011;6149;52.418;13.668;2022-09-24T13:20:32;5.10;;;4.60;;
12171;SDS011;6149;52.418;13.668;2022-09-24T13:23:10;4.97;;;4.30;;
12171;SDS011;6149;52.418;13.668;2022-09-24T13:25:55;6.03;;;4.73;;
12171;SDS011;6149;52.418;13.668;2022-09-24T13:28:26;5.27;;;4.37;;
12171;SDS011;6149;52.418;13.668;2022-09-24T13:30:56;7.27;;;4.70;;
12171;SDS011;6149;52.418;13.668;2022-09-24T13:33:28;5.07;;;4.57;;
12171;SDS011;6149;52.418;13.668;2022-09-24T13:35:59;4.93;;;4.53;;
12171;SDS011;6149;52.418;13.668;2022-09-24T13:38:32;5.60;;;4.87;;
12171;SDS011;6149;52.418;13.668;2022-09-24T13:41:04;5.83;;;4.50;;
12171;SDS011;6149;52.418;13.668;2022-09-24T13:43:49;6.20;;;5.60;;
12171;SDS011;6149;52.418;13.668;2022-09-24T13:46:19;6.73;;;4.97;;
12171;SDS011;6149;52.418;13.668;2022-09-24T13:48:48;6.60;;;4.97;;
12171;SDS011;6149;52.418;13.668;2022-09-24T13:51:17;5.30;;;4.67;;
12171;SDS011;6149;52.418;13.668;2022-09-24T13:53:51;5.77;;;5.20;;
12171;SDS011;6149;52.418;13.668;2022-09-24T13:56:23;7.23;;;5.20;;
12171;SDS011;6149;52.418;13.668;2022-09-24T13:58:52;5.23;;;4.63;;
12171;SDS011;6149;52.418;13.668;2022-09-24T14:01:30;5.40;;;4.70;;
12171;SDS011;6149;52.418;13.668;2022-09-24T14:04:06;7.53;;;4.77;;
12171;SDS011;6149;52.418;13.668;2022-09-24T14:06:43;5.97;;;4.77;;
12171;SDS011;6149;52.418;13.668;2022-09-24T14:09:16;4.93;;;4.53;;
12171;SDS011;6149;52.418;13.668;2022-09-24T14:11:53;5.70;;;5.20;;
12171;SDS011;6149;52.418;13.668;2022-09-24T14:14:25;5.50;;;5.00;;
12171;SDS011;6149;52.418;13.668;2022-09-24T14:16:53;5.47;;;4.37;;
12171;SDS011;6149;52.418;13.668;2022-09-24T14:19:31;5.37;;;4.87;;
12171;SDS011;6149;52.418;13.668;2022-09-24T14:21:58;5.80;;;5.20;;
12171;SDS011;6149;52.418;13.668;2022-09-24T14:24:29;5.10;;;4.70;;
12171;SDS011;6149;52.418;13.668;2022-09-24T14:26:59;5.07;;;4.60;;
12171;SDS011;6149;52.418;13.668;2022-09-24T14:29:33;4.93;;;4.53;;
12171;SDS011;6149;52.418;13.668;2022-09-24T14:32:15;5.33;;;4.70;;
12171;SDS011;6149;52.418;13.668;2022-09-24T14:34:49;5.10;;;4.60;;
12171;SDS011;6149;52.418;13.668;2022-09-24T14:37:19;5.40;;;4.60;;
12171;SDS011;6149;52.418;13.668;2022-09-24T14:39:49;5.40;;;4.70;;
12171;SDS011;6149;52.418;13.668;2022-09-24T14:42:27;5.20;;;4.80;;
12171;SDS011;6149;52.418;13.668;2022-09-24T14:44:59;7.67;;;5.70;;
12171;SDS011;6149;52.418;13.668;2022-09-24T14:47:29;5.47;;;4.97;;
12171;SDS011;6149;52.418;13.668;2022-09-24T14:49:58;6.20;;;5.23;;
12171;SDS011;6149;52.418;13.668;2022-09-24T14:52:30;5.60;;;5.10;;
12171;SDS011;6149;52.418;13.668;2022-09-24T14:55:07;6.03;;;4.83;;
12171;SDS011;6149;52.418;13.668;2022-09-24T14:57:42;6.60;;;5.13;;
12171;SDS011;6149;52.418;13.668;2022-09-24T15:00:22;5.20;;;4.70;;
12171;SDS011;6149;52.418;13.668;2022-09-24T15:02:55;5.80;;;5.13;;
12171;SDS011;6149;52.418;13.668;2022-09-24T15:05:27;5.83;;;5.23;;
12171;SDS011;6149;52.418;13.668;2022-09-24T15:08:08;6.27;;;5.30;;
12171;SDS011;6149;52.418;13.668;2022-09-24T15:10:50;6.10;;;5.37;;
12171;SDS011;6149;52.418;13.668;2022-09-24T15:13:21;5.23;;;4.73;;
12171;SDS011;6149;52.418;13.668;2022-09-24T15:16:04;6.30;;;5.70;;
12171;SDS011;6149;52.418;13.668;2022-09-24T15:18:46;5.30;;;4.73;;
12171;SDS011;6149;52.418;13.668;2022-09-24T15:21:23;7.30;;;5.23;;
12171;SDS011;6149;52.418;13.668;2022-09-24T15:23:55;6.13;;;5.13;;
12171;SDS011;6149;52.418;13.668;2022-09-24T15:26:23;10.53;;;5.70;;
12171;SDS011;6149;52.418;13.668;2022-09-24T15:28:56;5.60;;;4.93;;
12171;SDS011;6149;52.418;13.668;2022-09-24T15:31:25;5.80;;;5.20;;